Time;durP1;ratioP1;P1;durP2;ratioP2;P2;SDS_P1;SDS_P2;PMS_P1;PMS_P2;Temp;Humidity;BMP_temperature;BMP_pressure;BME280_temperature;BME280_humidity;BME280_pressure;Samples;Min_cycle;Max_cycle;Signal;HPM_P1;HPM_P2
2021/07/13 00:01:05;;;;;;;6.47;5.60;;;;;;;27.96;50.95;100703.23;128389;1086;64134;-86
2021/07/13 00:03:32;;;;;;;7.13;6.00;;;;;;;27.96;51.10;100696.94;128381;1086;63941;-85
2021/07/13 00:05:58;;;;;;;6.23;5.47;;;;;;;27.96;51.10;100703.23;128400;1087;64262;-86
2021/07/13 00:08:44;;;;;;;6.20;5.60;;;;;;;27.96;51.25;100703.23;128387;1086;64252;-85
2021/07/13 00:11:10;;;;;;;7.60;5.50;;;;;;;27.96;51.05;100708.66;128031;1085;64360;-85
2021/07/13 00:13:48;;;;;;;6.90;6.07;;;;;;;27.96;51.25;100710.50;128342;1087;64016;-86
2021/07/13 00:16:17;;;;;;;7.00;5.90;;;;;;;27.95;50.96;100698.81;128366;1087;64140;-86
2021/07/13 00:18:47;;;;;;;6.83;5.60;;;;;;;27.95;51.28;100696.09;128380;1086;64141;-85
2021/07/13 00:21:13;;;;;;;7.33;5.60;;;;;;;27.95;51.13;100696.09;128375;1087;64173;-86
2021/07/13 00:23:39;;;;;;;6.60;5.37;;;;;;;27.95;51.13;100687.95;128392;1087;64157;-86
2021/07/13 00:26:16;;;;;;;7.03;5.67;;;;;;;27.96;51.25;100688.80;128376;1086;64237;-85
2021/07/13 00:28:45;;;;;;;6.83;6.13;;;;;;;27.95;51.26;100690.67;128358;1087;64175;-86
2021/07/13 00:31:11;;;;;;;6.80;6.00;;;;;;;27.95;51.27;100693.38;128376;1085;64345;-85
2021/07/13 00:33:48;;;;;;;6.83;5.70;;;;;;;27.95;51.19;100698.81;128369;1087;64153;-86
2021/07/13 00:36:23;;;;;;;7.07;5.73;;;;;;;27.94;51.44;100691.67;128341;1087;64735;-86
2021/07/13 00:38:49;;;;;;;7.13;5.83;;;;;;;27.94;51.37;100691.67;128375;1087;64413;-86
2021/07/13 00:41:16;;;;;;;7.27;5.33;;;;;;;27.95;51.26;100692.55;128375;1087;64297;-85
2021/07/13 00:43:43;;;;;;;7.20;6.10;;;;;;;27.94;50.94;100680.82;128399;1087;64183;-85
2021/07/13 00:46:11;;;;;;;7.93;5.60;;;;;;;27.94;51.23;100683.53;128351;1087;64160;-86
2021/07/13 00:48:38;;;;;;;8.00;6.10;;;;;;;27.93;51.35;100685.41;128369;1086;64136;-85
2021/07/13 00:51:05;;;;;;;6.37;5.67;;;;;;;27.95;51.38;100689.83;128393;1086;64604;-86
2021/07/13 00:53:35;;;;;;;6.93;5.40;;;;;;;27.93;51.29;100690.83;128343;1087;64134;-85
2021/07/13 00:56:02;;;;;;;6.40;5.60;;;;;;;27.93;51.24;100701.69;128336;1087;64131;-85
2021/07/13 00:58:38;;;;;;;;;;;;;;;;;;;;;
2021/07/13 01:01:06;;;;;;;7.13;6.20;;;;;;;27.92;51.25;100694.55;128441;1086;64227;-85
2021/07/13 01:03:36;;;;;;;6.93;5.80;;;;;;;27.93;51.18;100688.12;128388;1087;64157;-85
2021/07/13 01:06:18;;;;;;;;;;;;;;;;;;;;;
2021/07/13 01:08:54;;;;;;;6.80;5.67;;;;;;;27.92;51.02;100685.57;128383;1087;64285;-85
2021/07/13 01:11:37;;;;;;;6.80;5.70;;;;;;;27.93;51.27;100690.83;128396;1087;64134;-85
2021/07/13 01:14:14;;;;;;;6.63;5.70;;;;;;;27.93;51.29;100693.55;128330;1087;64132;-85
2021/07/13 01:16:48;;;;;;;6.70;5.43;;;;;;;27.92;51.09;100688.28;128394;1087;64134;-85
2021/07/13 01:19:54;;;;;;;6.13;5.33;;;;;;;27.93;51.19;100689.99;128354;1086;64220;-85
2021/07/13 01:22:57;;;;;;;6.37;5.63;;;;;;;27.92;51.46;100689.13;128373;1087;64310;-86
2021/07/13 01:25:48;;;;;;;6.13;5.30;;;;;;;27.91;51.60;100689.28;128379;1087;64148;-85
2021/07/13 01:28:35;;;;;;;7.30;5.67;;;;;;;27.92;51.10;100696.42;128380;1086;64141;-85
2021/07/13 01:31:18;;;;;;;7.17;5.47;;;;;;;27.91;51.16;100692.00;127984;1086;64098;-85
2021/07/13 01:34:12;;;;;;;6.13;5.53;;;;;;;27.92;51.24;100682.86;128347;1087;62837;-85
2021/07/13 01:36:44;;;;;;;6.53;5.40;;;;;;;27.91;51.44;100684.70;128408;1086;64093;-85
2021/07/13 01:39:20;;;;;;;6.50;5.80;;;;;;;27.91;51.44;100679.27;128413;1087;64177;-86
2021/07/13 01:41:49;;;;;;;7.53;5.47;;;;;;;27.91;51.44;100686.57;128385;1087;64134;-86
2021/07/13 01:44:19;;;;;;;6.93;5.43;;;;;;;27.91;51.33;100684.70;128392;1085;64098;-85
2021/07/13 01:46:49;;;;;;;6.60;5.70;;;;;;;27.91;51.46;100686.57;128330;1087;64103;-86
2021/07/13 01:49:19;;;;;;;6.13;5.53;;;;;;;27.92;51.50;100697.27;128389;1087;64164;-85
2021/07/13 01:51:47;;;;;;;6.90;5.43;;;;;;;27.91;51.54;100687.41;128377;1085;64151;-85
2021/07/13 01:54:24;;;;;;;6.73;5.50;;;;;;;27.91;51.38;100678.44;128367;1087;64169;-86
2021/07/13 01:56:53;;;;;;;7.43;5.83;;;;;;;27.91;51.29;100681.98;128323;1087;64617;-86
2021/07/13 01:59:19;;;;;;;7.40;5.73;;;;;;;27.91;51.29;100679.27;128360;1087;64142;-85
2021/07/13 02:01:53;;;;;;;6.00;5.40;;;;;;;27.91;51.56;100673.84;128394;1087;64138;-85
2021/07/13 02:04:19;;;;;;;6.30;5.27;;;;;;;27.91;51.31;100673.01;128077;1087;64072;-85
2021/07/13 02:06:46;;;;;;;6.03;5.20;;;;;;;27.91;51.56;100668.42;128408;1087;64287;-85
2021/07/13 02:09:13;;;;;;;6.97;5.90;;;;;;;27.91;51.31;100671.13;128386;1087;64140;-85
2021/07/13 02:11:49;;;;;;;6.40;5.33;;;;;;;27.90;51.39;100672.17;128425;1087;64986;-85
2021/07/13 02:14:15;;;;;;;6.83;5.40;;;;;;;27.90;51.36;100669.45;128395;1087;64151;-86
2021/07/13 02:16:43;;;;;;;6.67;5.47;;;;;;;27.90;51.59;100685.73;128381;1087;64132;-85
2021/07/13 02:19:28;;;;;;;;;;;;;;;;;;;;;
2021/07/13 02:22:05;;;;;;;5.93;5.27;;;;;;;27.90;51.41;100683.02;128311;1085;64093;-86
2021/07/13 02:24:31;;;;;;;6.70;6.00;;;;;;;27.90;51.33;100683.02;128399;1087;64134;-85
2021/07/13 02:27:04;;;;;;;6.37;5.47;;;;;;;27.90;51.70;100684.86;128399;1085;64003;-85
2021/07/13 02:29:30;;;;;;;6.87;6.00;;;;;;;27.90;51.60;100684.86;128470;1087;64099;-85
2021/07/13 02:32:12;;;;;;;6.60;5.53;;;;;;;27.90;51.54;100676.72;128402;1087;64214;-85
2021/07/13 02:34:49;;;;;;;7.07;5.60;;;;;;;27.90;51.51;100688.45;128411;1086;64087;-85
2021/07/13 02:37:15;;;;;;;6.67;5.50;;;;;;;27.90;51.71;100685.73;128366;1085;64138;-85
2021/07/13 02:39:46;;;;;;;7.27;5.40;;;;;;;27.90;51.39;100693.00;128339;1087;64144;-86
2021/07/13 02:42:13;;;;;;;6.87;5.23;;;;;;;27.90;51.42;100687.58;128394;1085;64227;-86
2021/07/13 02:44:51;;;;;;;7.37;5.50;;;;;;;27.90;51.38;100685.73;128381;1087;64279;-85
2021/07/13 02:47:18;;;;;;;8.15;5.65;;;;;;;27.89;51.20;100689.45;128046;1087;64032;-86
2021/07/13 02:49:57;;;;;;;7.23;5.53;;;;;;;27.90;51.30;100687.58;128383;1087;64166;-85
2021/07/13 02:52:28;;;;;;;5.93;5.30;;;;;;;27.89;51.37;100685.86;128374;1087;64186;-86
2021/07/13 02:54:58;;;;;;;6.60;5.90;;;;;;;27.89;51.62;100684.02;128414;1087;64654;-86
2021/07/13 02:57:28;;;;;;;6.37;5.63;;;;;;;27.89;51.52;100684.02;128390;1087;64102;-86
2021/07/13 02:59:55;;;;;;;6.83;5.40;;;;;;;27.89;51.61;100681.31;128380;1087;64230;-86
2021/07/13 03:02:30;;;;;;;6.00;5.40;;;;;;;27.89;51.59;100681.31;128351;1087;64419;-86
2021/07/13 03:04:59;;;;;;;6.40;5.47;;;;;;;27.89;51.47;100685.86;128383;1086;64337;-86
2021/07/13 03:07:31;;;;;;;6.50;5.50;;;;;;;27.89;51.60;100688.58;128344;1087;64206;-85
2021/07/13 03:09:58;;;;;;;5.90;5.30;;;;;;;27.89;51.37;100683.16;128373;1087;64132;-86
2021/07/13 03:12:34;;;;;;;7.00;5.53;;;;;;;27.90;51.82;100684.86;128377;1085;64189;-85
2021/07/13 03:15:06;;;;;;;5.93;5.30;;;;;;;27.89;51.54;100681.31;128357;1087;64132;-86
2021/07/13 03:17:34;;;;;;;8.03;5.80;;;;;;;27.88;51.20;100671.46;128391;1087;63958;-86
2021/07/13 03:20:11;;;;;;;7.57;5.43;;;;;;;27.89;51.62;100680.44;128342;1087;64121;-86
2021/07/13 03:22:43;;;;;;;6.17;5.30;;;;;;;27.90;51.51;100674.02;128374;1087;64269;-86
2021/07/13 03:25:12;;;;;;;6.23;5.63;;;;;;;27.89;51.32;100681.31;128369;1087;64108;-85
2021/07/13 03:27:42;;;;;;;5.87;5.20;;;;;;;27.89;51.74;100680.44;128369;1087;64170;-86
2021/07/13 03:30:09;;;;;;;7.37;5.67;;;;;;;27.89;51.41;100677.73;128390;1086;64139;-85
2021/07/13 03:32:36;;;;;;;7.90;5.33;;;;;;;27.90;51.71;100680.30;128353;1087;64294;-86
2021/07/13 03:35:13;;;;;;;5.90;5.17;;;;;;;27.90;51.41;100674.88;128359;1087;64219;-85
2021/07/13 03:37:39;;;;;;;6.70;5.37;;;;;;;27.89;51.55;100677.73;128344;1087;64128;-85
2021/07/13 03:40:27;;;;;;;7.33;5.60;;;;;;;27.89;51.52;100673.17;128360;1086;64139;-85
2021/07/13 03:42:59;;;;;;;6.47;5.23;;;;;;;27.89;51.55;100672.30;128381;1087;64095;-85
2021/07/13 03:45:28;;;;;;;6.63;5.57;;;;;;;27.89;51.40;100675.02;128394;1087;64245;-85
2021/07/13 03:47:58;;;;;;;5.77;5.07;;;;;;;27.89;51.37;100677.73;128353;1086;64138;-85
2021/07/13 03:50:33;;;;;;;6.10;5.30;;;;;;;27.89;51.35;100683.16;128379;1087;63564;-86
2021/07/13 03:53:00;;;;;;;6.63;5.60;;;;;;;27.87;51.53;100675.17;128443;1086;64310;-86
2021/07/13 03:55:27;;;;;;;6.27;5.50;;;;;;;27.86;51.50;100673.50;128379;1087;64214;-85
2021/07/13 03:57:58;;;;;;;6.50;5.77;;;;;;;27.87;51.67;100682.48;128362;1087;64102;-85
2021/07/13 04:00:32;;;;;;;8.10;6.27;;;;;;;27.87;51.26;100683.31;128382;1086;64282;-86
2021/07/13 04:03:02;;;;;;;7.83;5.73;;;;;;;27.87;51.31;100685.19;128380;1087;64760;-85
2021/07/13 04:05:31;;;;;;;6.20;5.50;;;;;;;27.87;51.30;100687.90;128389;1087;64215;-86
2021/07/13 04:08:03;;;;;;;6.90;6.20;;;;;;;27.87;51.25;100688.73;128359;1087;64131;-86
2021/07/13 04:10:39;;;;;;;8.07;5.90;;;;;;;27.87;51.35;100690.61;128364;1087;64252;-86
2021/07/13 04:13:05;;;;;;;6.73;6.03;;;;;;;27.87;51.05;100686.03;128370;1087;64274;-86
2021/07/13 04:15:35;;;;;;;7.60;5.80;;;;;;;27.86;51.11;100684.34;128399;1087;64216;-86
2021/07/13 04:18:03;;;;;;;7.03;5.60;;;;;;;27.87;51.06;100687.90;128366;1087;64272;-85
2021/07/13 04:20:30;;;;;;;7.67;6.23;;;;;;;27.86;51.07;100692.48;128327;1086;64096;-85
2021/07/13 04:23:06;;;;;;;9.53;6.23;;;;;;;27.86;51.00;100692.48;128382;1087;64249;-85
2021/07/13 04:25:32;;;;;;;9.50;6.10;;;;;;;27.86;50.82;100691.61;128375;1086;64161;-84
2021/07/13 04:27:59;;;;;;;7.67;5.97;;;;;;;27.86;50.65;100695.20;128388;1086;64396;-86
2021/07/13 04:30:34;;;;;;;9.70;6.50;;;;;;;27.87;50.80;100696.88;128387;1087;64214;-85
2021/07/13 04:33:23;;;;;;;8.37;6.20;;;;;;;27.87;51.00;100702.30;128326;1087;62910;-85
2021/07/13 04:35:50;;;;;;;8.80;6.23;;;;;;;27.88;50.59;100697.75;128379;1087;64175;-85
2021/07/13 04:38:16;;;;;;;7.13;6.20;;;;;;;27.88;50.69;100705.89;128382;1087;64102;-86
2021/07/13 04:40:46;;;;;;;8.00;6.20;;;;;;;27.87;50.69;100707.73;128361;1087;63300;-86
2021/07/13 04:43:15;;;;;;;9.90;6.95;;;;;;;27.87;50.77;100705.02;128347;1087;62184;-86
2021/07/13 04:45:52;;;;;;;7.23;6.33;;;;;;;27.88;50.50;100709.44;128359;1084;64233;-86
2021/07/13 04:48:18;;;;;;;8.70;6.77;;;;;;;27.89;50.64;100704.85;128368;1087;64073;-86
2021/07/13 04:50:54;;;;;;;10.03;6.90;;;;;;;27.89;50.50;100703.02;128355;1087;62144;-86
2021/07/13 04:53:39;;;;;;;;;;;;;;;;;;;;;
2021/07/13 04:56:15;;;;;;;9.07;6.67;;;;;;;27.89;50.43;100711.15;128397;1087;64291;-85
2021/07/13 04:58:41;;;;;;;8.70;6.60;;;;;;;27.91;50.36;100713.70;128361;1087;64310;-85
2021/07/13 05:01:17;;;;;;;8.40;6.13;;;;;;;27.91;49.99;100708.27;128407;1085;64099;-85
2021/07/13 05:03:43;;;;;;;8.47;7.10;;;;;;;27.92;50.03;100709.98;128369;1087;64105;-85
2021/07/13 05:06:10;;;;;;;9.83;6.87;;;;;;;27.93;50.32;100706.27;128412;1087;64087;-84
2021/07/13 05:08:36;;;;;;;8.67;6.57;;;;;;;27.93;49.95;100706.27;128359;1086;64135;-86
2021/07/13 05:11:03;;;;;;;8.47;6.47;;;;;;;27.93;50.15;100707.11;128349;1085;64183;-85
2021/07/13 05:13:34;;;;;;;9.40;6.60;;;;;;;27.95;49.87;100706.11;128419;1087;64281;-85
2021/07/13 05:16:01;;;;;;;11.40;7.10;;;;;;;27.95;49.75;100708.82;128409;1086;64135;-85
2021/07/13 05:18:33;;;;;;;8.00;6.47;;;;;;;27.96;49.65;100707.79;128381;1087;63949;-84
2021/07/13 05:21:03;;;;;;;7.73;6.43;;;;;;;27.96;49.66;100714.09;128442;1087;64211;-85
2021/07/13 05:23:31;;;;;;;9.47;6.90;;;;;;;27.97;49.38;100709.50;128364;1085;64099;-86
2021/07/13 05:25:57;;;;;;;9.73;6.80;;;;;;;27.98;49.74;100713.92;128369;1087;63949;-86
2021/07/13 05:28:34;;;;;;;9.83;7.27;;;;;;;27.98;49.72;100712.05;128349;1087;64137;-86
2021/07/13 05:31:15;;;;;;;11.73;7.47;;;;;;;27.99;49.68;100711.05;128351;1086;64159;-86
2021/07/13 05:33:51;;;;;;;10.63;7.10;;;;;;;27.99;49.64;100704.78;128347;1087;64290;-86
2021/07/13 05:36:17;;;;;;;8.03;6.63;;;;;;;28.01;49.21;100713.63;128390;1086;64208;-85
2021/07/13 05:38:53;;;;;;;10.43;7.30;;;;;;;28.01;49.32;100714.50;128368;1085;64104;-86
2021/07/13 05:41:33;;;;;;;9.23;7.53;;;;;;;28.01;49.35;100708.20;128367;1085;64106;-86
2021/07/13 05:43:59;;;;;;;;;;;;;;;28.02;49.31;100712.63;128345;1087;64208;-84
2021/07/13 05:46:26;;;;;;;9.07;6.93;;;;;;;28.02;49.20;100715.34;128300;1086;64260;-83
2021/07/13 05:48:52;;;;;;;10.47;7.40;;;;;;;28.03;48.77;100714.34;128251;1085;64140;-84
2021/07/13 05:51:20;;;;;;;8.50;6.90;;;;;;;28.03;49.11;100711.63;128299;1085;64134;-84
2021/07/13 05:53:46;;;;;;;10.37;7.47;;;;;;;28.04;49.11;100719.60;128315;1085;64182;-84
2021/07/13 05:56:14;;;;;;;;;;;;;;;28.06;49.06;100722.16;128350;1087;64187;-84
2021/07/13 05:58:45;;;;;;;12.30;8.03;;;;;;;28.05;48.86;100721.31;128322;1087;63970;-86
2021/07/13 06:01:12;;;;;;;8.90;7.53;;;;;;;28.07;48.78;100721.15;128344;1086;64236;-85
2021/07/13 06:03:47;;;;;;;11.07;8.00;;;;;;;28.08;48.78;100720.15;128381;1086;64365;-85
2021/07/13 06:06:17;;;;;;;8.70;7.50;;;;;;;28.08;48.57;100726.41;128394;1087;64255;-85
2021/07/13 06:08:48;;;;;;;13.47;8.87;;;;;;;28.08;48.64;100723.70;128386;1086;64138;-85
2021/07/13 06:11:17;;;;;;;10.97;8.40;;;;;;;28.08;48.88;100728.29;128381;1086;64102;-86
2021/07/13 06:13:44;;;;;;;11.90;8.33;;;;;;;28.10;48.51;100731.68;128905;1086;61732;-84
2021/07/13 06:16:11;;;;;;;10.30;7.80;;;;;;;28.11;48.42;100719.83;128509;1087;64131;-85
2021/07/13 06:18:40;;;;;;;13.57;8.37;;;;;;;28.13;48.66;100725.09;128316;1087;64102;-84
2021/07/13 06:21:09;;;;;;;11.63;7.87;;;;;;;28.13;48.57;100731.39;128261;1087;64156;-84
2021/07/13 06:23:59;;;;;;;12.73;8.10;;;;;;;28.14;48.21;100730.34;128365;1086;64170;-85
2021/07/13 06:26:26;;;;;;;12.33;8.00;;;;;;;28.16;48.37;100733.77;127879;1087;64560;-85
2021/07/13 06:28:52;;;;;;;9.33;7.53;;;;;;;28.17;48.32;100729.19;127897;1087;64135;-85
2021/07/13 06:31:21;;;;;;;10.70;8.13;;;;;;;28.17;48.40;100724.63;127866;1087;64376;-86
2021/07/13 06:33:48;;;;;;;10.60;7.67;;;;;;;28.18;48.01;100726.30;127853;1087;64502;-85
2021/07/13 06:36:18;;;;;;;12.33;8.13;;;;;;;28.19;48.39;100728.02;127951;1087;64140;-86
2021/07/13 06:39:10;;;;;;;12.17;8.03;;;;;;;28.20;48.57;100726.17;127865;1086;63182;-85
2021/07/13 06:41:55;;;;;;;;;;;;;;;;;;;;;
2021/07/13 06:44:28;;;;;;;10.27;7.37;;;;;;;28.20;48.24;100731.60;127909;1087;64134;-86
2021/07/13 06:46:54;;;;;;;9.53;7.50;;;;;;;28.19;48.13;100728.02;127942;1085;64114;-85
2021/07/13 06:49:32;;;;;;;10.67;7.70;;;;;;;28.21;48.05;100727.86;127890;1087;63974;-86
2021/07/13 06:51:59;;;;;;;11.70;8.08;;;;;;;28.20;48.05;100729.73;127915;1087;64170;-85
2021/07/13 06:54:34;;;;;;;11.10;7.70;;;;;;;28.22;48.00;100724.98;127875;1087;64636;-85
2021/07/13 06:57:01;;;;;;;10.93;7.50;;;;;;;28.21;47.88;100715.16;127905;1087;64355;-86
2021/07/13 06:59:27;;;;;;;9.50;7.80;;;;;;;28.21;48.02;100715.16;127859;1085;64137;-86
2021/07/13 07:01:58;;;;;;;9.67;7.80;;;;;;;28.22;48.36;100713.28;127885;1087;64275;-85
2021/07/13 07:04:29;;;;;;;10.10;7.90;;;;;;;28.23;48.14;100720.42;128139;1085;64139;-84
2021/07/13 07:06:55;;;;;;;12.77;7.63;;;;;;;28.23;47.95;100720.42;128356;1086;64294;-84
2021/07/13 07:09:28;;;;;;;11.73;7.70;;;;;;;28.23;48.05;100720.42;128355;1087;64291;-85
2021/07/13 07:12:06;;;;;;;13.70;7.23;;;;;;;28.22;48.04;100714.12;128342;1087;64135;-86
2021/07/13 07:14:35;;;;;;;10.78;7.93;;;;;;;28.23;47.96;100715.83;128358;1087;64239;-86
2021/07/13 07:17:04;;;;;;;11.77;8.20;;;;;;;28.23;48.21;100713.11;128394;1087;64148;-85
2021/07/13 07:19:32;;;;;;;9.87;7.47;;;;;;;28.23;48.05;100715.83;128321;1085;64224;-84
2021/07/13 07:22:13;;;;;;;11.50;8.33;;;;;;;28.24;47.96;100719.41;128374;1087;64136;-83
2021/07/13 07:24:39;;;;;;;9.67;7.83;;;;;;;28.25;48.39;100715.67;128342;1086;64238;-85
2021/07/13 07:27:14;;;;;;;9.80;7.50;;;;;;;28.24;48.15;100720.25;128319;1085;64131;-85
2021/07/13 07:29:49;;;;;;;9.97;7.57;;;;;;;28.25;48.06;100721.09;128355;1084;64683;-85
2021/07/13 07:32:24;;;;;;;11.77;8.77;;;;;;;28.24;47.96;100716.70;128340;1087;64095;-85
2021/07/13 07:34:59;;;;;;;12.83;9.23;;;;;;;28.24;48.27;100713.98;128407;1087;64148;-85
2021/07/13 07:37:26;;;;;;;12.33;8.63;;;;;;;28.24;47.92;100714.83;128378;1086;64574;-85
2021/07/13 07:39:53;;;;;;;13.40;8.97;;;;;;;28.24;48.20;100712.11;127996;1087;64140;-86
2021/07/13 07:42:21;;;;;;;12.73;9.03;;;;;;;28.25;48.10;100707.52;128307;1085;64138;-86
2021/07/13 07:44:48;;;;;;;13.73;9.23;;;;;;;28.25;48.45;100715.67;127979;1087;64105;-84
2021/07/13 07:47:14;;;;;;;11.70;8.53;;;;;;;28.25;48.22;100707.52;128388;1087;64131;-85
2021/07/13 07:49:51;;;;;;;;;;;;;;;;;;;;;
2021/07/13 07:52:20;;;;;;;10.60;8.47;;;;;;;28.25;47.95;100708.39;128350;1086;64218;-85
2021/07/13 07:54:59;;;;;;;13.00;8.73;;;;;;;28.26;48.11;100714.66;128390;1086;64144;-86
2021/07/13 07:57:28;;;;;;;10.57;7.93;;;;;;;28.27;47.95;100716.38;128405;1086;64067;-86
2021/07/13 07:59:58;;;;;;;10.47;8.67;;;;;;;28.26;48.11;100712.82;128375;1085;64138;-86
2021/07/13 08:02:28;;;;;;;11.27;8.30;;;;;;;28.26;47.88;100712.82;128366;1087;64138;-86
2021/07/13 08:05:16;;;;;;;10.80;8.30;;;;;;;28.28;48.05;100714.50;128358;1087;64131;-86
2021/07/13 08:07:48;;;;;;;11.30;8.17;;;;;;;28.26;48.20;100710.11;128045;1085;64214;-85
2021/07/13 08:10:23;;;;;;;12.93;8.70;;;;;;;28.27;48.30;100713.66;128203;1085;64105;-86
2021/07/13 08:12:51;;;;;;;13.30;8.27;;;;;;;28.27;48.16;100719.09;128264;1086;64131;-85
2021/07/13 08:15:17;;;;;;;12.10;7.83;;;;;;;28.27;48.09;100713.66;127890;1085;64144;-85
2021/07/13 08:17:47;;;;;;;9.80;8.27;;;;;;;28.29;48.07;100710.78;128206;1085;64131;-85
2021/07/13 08:20:13;;;;;;;10.77;7.60;;;;;;;28.28;47.98;100714.50;128231;1086;63950;-85
2021/07/13 08:22:45;;;;;;;14.03;8.83;;;;;;;28.29;48.03;100714.33;128231;1087;64140;-85
2021/07/13 08:25:12;;;;;;;13.83;8.17;;;;;;;28.30;48.13;100724.19;128227;1085;64210;-85
2021/07/13 08:27:38;;;;;;;13.33;8.30;;;;;;;28.31;47.84;100708.77;128315;1087;63964;-85
2021/07/13 08:30:11;;;;;;;13.90;8.50;;;;;;;28.31;48.04;100714.20;128310;1087;64070;-85
2021/07/13 08:32:38;;;;;;;12.97;8.67;;;;;;;28.31;47.93;100712.33;128351;1086;64138;-86
2021/07/13 08:35:18;;;;;;;14.47;8.37;;;;;;;28.31;47.92;100709.61;128339;1085;64294;-86
2021/07/13 08:37:52;;;;;;;13.67;8.17;;;;;;;28.30;48.01;100712.48;128408;1087;64099;-85
2021/07/13 08:40:19;;;;;;;13.57;8.50;;;;;;;28.31;47.99;100711.48;128347;1085;64135;-86
2021/07/13 08:42:46;;;;;;;12.60;8.30;;;;;;;28.31;48.31;100709.61;128251;1085;64095;-85
2021/07/13 08:45:15;;;;;;;12.63;8.57;;;;;;;28.30;48.14;100707.91;128322;1087;64143;-85
2021/07/13 08:47:46;;;;;;;11.25;8.30;;;;;;;28.30;48.14;100699.76;128341;1087;64182;-85
2021/07/13 08:50:13;;;;;;;12.80;8.60;;;;;;;28.31;48.03;100695.20;128198;1084;64167;-85
2021/07/13 08:52:40;;;;;;;12.60;8.20;;;;;;;28.31;47.98;100695.20;128408;1084;64157;-86
2021/07/13 08:55:10;;;;;;;15.93;8.07;;;;;;;28.30;47.96;100697.05;128303;1085;64167;-86
2021/07/13 08:57:41;;;;;;;10.73;8.13;;;;;;;28.30;47.77;100705.19;128221;1086;64735;-84
2021/07/13 09:00:09;;;;;;;12.23;8.13;;;;;;;28.30;47.71;100705.19;128254;1084;64163;-85
2021/07/13 09:03:08;;;;;;;10.40;7.87;;;;;;;28.32;47.88;100711.32;128213;1087;64131;-84
2021/07/13 09:05:47;;;;;;;10.63;8.30;;;;;;;28.32;48.28;100710.45;128221;1084;64176;-85
2021/07/13 09:08:15;;;;;;;12.80;8.37;;;;;;;28.33;47.92;100712.16;128251;1084;64268;-84
2021/07/13 09:11:13;;;;;;;11.57;8.50;;;;;;;28.33;48.08;100713.03;128213;1085;63965;-85
2021/07/13 09:13:44;;;;;;;10.63;7.97;;;;;;;28.32;48.06;100707.73;127808;1087;64291;-84
2021/07/13 09:16:13;;;;;;;13.37;7.63;;;;;;;28.33;47.78;100709.45;128218;1084;64147;-85
2021/07/13 09:18:42;;;;;;;13.43;8.03;;;;;;;28.33;47.87;100706.73;127904;1086;64159;-84
2021/07/13 09:21:20;;;;;;;12.03;7.30;;;;;;;28.33;47.88;100704.89;127600;1087;64176;-85
2021/07/13 09:23:58;;;;;;;12.10;7.50;;;;;;;28.33;47.90;100709.45;127579;1087;64156;-84
2021/07/13 09:26:41;;;;;;;12.60;7.93;;;;;;;28.34;48.01;100705.73;127654;1087;64159;-85
2021/07/13 09:29:30;;;;;;;9.63;7.33;;;;;;;28.34;48.19;100701.14;127830;1087;64039;-84
2021/07/13 09:32:15;;;;;;;10.85;7.48;;;;;;;28.34;48.21;100703.85;127875;1085;64045;-85
2021/07/13 09:34:58;;;;;;;10.20;7.00;;;;;;;28.34;47.96;100703.85;127989;1087;64221;-85
2021/07/13 09:37:32;;;;;;;9.37;7.57;;;;;;;28.34;47.85;100698.42;127947;1087;64262;-86
2021/07/13 09:40:11;;;;;;;10.93;7.43;;;;;;;28.34;48.00;100701.14;128023;1087;64215;-85
2021/07/13 09:42:52;;;;;;;11.10;7.50;;;;;;;28.34;47.90;100703.02;128373;1087;64095;-86
2021/07/13 09:45:39;;;;;;;12.03;7.70;;;;;;;28.33;47.98;100696.75;128024;1087;64141;-86
2021/07/13 09:48:21;;;;;;;9.43;7.57;;;;;;;28.32;47.85;100703.17;127991;1087;64103;-85
2021/07/13 09:50:51;;;;;;;11.17;7.60;;;;;;;28.31;48.28;100693.33;128063;1087;64163;-85
2021/07/13 09:53:41;;;;;;;10.17;7.90;;;;;;;28.32;47.67;100699.59;128398;1084;64093;-85
2021/07/13 09:56:10;;;;;;;11.43;9.27;;;;;;;28.31;48.03;100700.63;128393;1084;64849;-86
2021/07/13 09:58:42;;;;;;;11.27;8.63;;;;;;;28.31;47.98;100704.18;128384;1086;64141;-86
2021/07/13 10:01:14;;;;;;;11.90;8.60;;;;;;;28.31;48.07;100698.75;128459;1086;64044;-85
2021/07/13 10:03:41;;;;;;;12.07;8.97;;;;;;;28.31;48.01;100703.34;128443;1085;64160;-85
2021/07/13 10:06:08;;;;;;;13.47;8.80;;;;;;;28.30;47.92;100696.20;128352;1087;63098;-86
2021/07/13 10:08:43;;;;;;;12.37;10.03;;;;;;;28.31;48.21;100695.20;128329;1085;64394;-86
2021/07/13 10:11:10;;;;;;;10.67;9.33;;;;;;;28.30;47.83;100702.47;128361;1087;64092;-85
2021/07/13 10:13:37;;;;;;;11.60;9.50;;;;;;;28.30;48.14;100704.34;128391;1087;63942;-84
2021/07/13 10:16:12;;;;;;;12.27;9.83;;;;;;;28.31;48.18;100700.63;128329;1087;64243;-85
2021/07/13 10:18:43;;;;;;;13.03;9.57;;;;;;;28.30;47.91;100699.76;128381;1087;64205;-85
2021/07/13 10:21:10;;;;;;;12.07;8.77;;;;;;;28.29;48.07;100689.91;128377;1086;64249;-86
2021/07/13 10:23:47;;;;;;;11.37;9.47;;;;;;;28.29;48.21;100695.33;128373;1086;64172;-86
2021/07/13 10:26:27;;;;;;;14.03;9.90;;;;;;;28.28;48.24;100693.66;128370;1087;64131;-86
2021/07/13 10:29:05;;;;;;;10.57;9.30;;;;;;;28.28;47.97;100695.50;128360;1086;63952;-86
2021/07/13 10:31:37;;;;;;;10.70;9.55;;;;;;;28.28;48.04;100693.66;128396;1087;64145;-86
2021/07/13 10:34:08;;;;;;;11.27;9.67;;;;;;;28.29;48.23;100680.92;128365;1087;64128;-86
2021/07/13 10:36:44;;;;;;;12.40;9.80;;;;;;;28.27;48.25;100683.80;128357;1087;64138;-85
2021/07/13 10:39:43;;;;;;;11.27;9.63;;;;;;;28.28;48.22;100677.37;128366;1087;64141;-86
2021/07/13 10:42:09;;;;;;;10.10;9.07;;;;;;;28.28;47.74;100690.07;128401;1085;64140;-86
2021/07/13 10:44:53;;;;;;;11.63;9.97;;;;;;;28.28;48.15;100687.36;128383;1087;64135;-86
2021/07/13 10:47:25;;;;;;;11.73;9.70;;;;;;;28.28;47.93;100687.36;128406;1085;64109;-85
2021/07/13 10:50:18;;;;;;;12.20;10.10;;;;;;;28.26;48.16;100674.82;128393;1087;64109;-86
2021/07/13 10:52:55;;;;;;;11.60;9.70;;;;;;;28.28;48.15;100673.78;128371;1087;64171;-86
2021/07/13 10:55:45;;;;;;;12.57;9.60;;;;;;;28.26;47.88;100674.82;128367;1087;64616;-86
2021/07/13 10:58:14;;;;;;;11.87;9.63;;;;;;;28.27;47.83;100675.66;128410;1087;64131;-86
2021/07/13 11:01:15;;;;;;;14.33;10.50;;;;;;;28.26;48.10;100672.11;128388;1087;64249;-86
2021/07/13 11:04:06;;;;;;;11.53;9.47;;;;;;;28.26;47.94;100668.52;127937;1087;64159;-86
2021/07/13 11:06:53;;;;;;;13.83;9.97;;;;;;;28.26;48.20;100668.52;127756;1090;64259;-86
2021/07/13 11:09:27;;;;;;;11.50;9.83;;;;;;;28.25;48.35;100664.97;127773;1090;64102;-85
2021/07/13 11:12:06;;;;;;;12.20;10.00;;;;;;;28.25;48.18;100664.97;127780;1090;64435;-85
2021/07/13 11:14:42;;;;;;;11.63;9.90;;;;;;;28.26;48.30;100665.80;127818;1089;64144;-86
2021/07/13 11:17:18;;;;;;;12.43;10.13;;;;;;;28.25;47.96;100662.25;127695;1090;64304;-86
2021/07/13 11:19:44;;;;;;;12.07;10.07;;;;;;;28.25;47.99;100654.11;127766;1090;64328;-86
2021/07/13 11:22:19;;;;;;;;;;;;;;;28.24;48.30;100656.99;127754;1090;64361;-86
2021/07/13 11:24:49;;;;;;;12.00;9.80;;;;;;;28.23;48.05;100666.98;127794;1090;64150;-86
2021/07/13 11:27:21;;;;;;;12.63;10.23;;;;;;;28.23;47.94;100656.13;127642;1089;64472;-85
2021/07/13 11:29:52;;;;;;;11.37;10.27;;;;;;;28.24;47.92;100657.83;127601;1090;64163;-85
2021/07/13 11:32:18;;;;;;;10.70;9.60;;;;;;;28.25;47.98;100658.67;127755;1090;64338;-86
2021/07/13 11:34:55;;;;;;;13.20;9.87;;;;;;;28.24;48.32;100649.69;127647;1090;64768;-86
2021/07/13 11:37:23;;;;;;;11.80;9.67;;;;;;;28.25;48.13;100659.54;127720;1090;64398;-85
2021/07/13 11:39:49;;;;;;;11.53;10.13;;;;;;;28.24;48.04;100652.40;127739;1088;64263;-85
2021/07/13 11:42:27;;;;;;;12.87;9.57;;;;;;;28.25;48.05;100645.09;127863;1087;64175;-85
2021/07/13 11:45:01;;;;;;;10.70;9.60;;;;;;;28.24;48.15;100649.69;127979;1085;64099;-86
2021/07/13 11:47:29;;;;;;;11.97;9.83;;;;;;;28.25;48.17;100650.52;128388;1086;64965;-86